Fairport Harbor, Ohio
Current Conditions -  °F | °C
As of 5:45 PM on Sunday 23 Nov 2014 (Local Time) from KCGF Reporting Station
Overcast Overcast  
Wind Chill: 57°   Ceiling: 10000
Heat Index: 57°   Visibility: 10mi
Dew Point: 45°   Wind: 16mph
Humidity: 63%   Direction: 130°SE
Pressure: 29.7"   Gusts: NA
Location:  41.6851°N, 81.2077°W
Report Text: KCGF 232245Z 13014KT 10SM BKN100 OVC200 14/07 A2970
Loading
Personal Weather Stations






























Interactive Weather Map New forecast layout! Learn more

10-Day Weather Forecast

Advertisements
Track Severe Weather on mobile